• Join FlightAware (Why Join?)
  • Login
  • US Flag 
07:07AM EDT


 

Airport Tracker/Info


-or-


 

Live Flight TrackerFlight Track Log ✈ EJA922 ✈ 07-Jan-2014 ✈ KDIJ - KBFI

Flight Track Log - Related Links

Times and Time Zones

All times are in EST time to prevent confusion due to time zone crossing. See the EJA922 flight status page for this flight to view local times or setup timezone preferences in your user account.

Time Position Orientation Groundspeed Altitude Reporting Facility
EST Latitude Longitude Course Direction KTS MPH feet Rate Location/Type
06:57PM 43.8336 -111.1325 321° Northwest 231 266 13,400  Level Salt Lake Center
06:58PM 43.8928 -111.1856 327° Northwest 247 284 15,200 1,800 Climbing Salt Lake Center
06:59PM 43.9650 -111.2906 314° West 319 367 17,100 2,340 Climbing Salt Lake Center
07:00PM 43.9842 -111.4233 281° West 353 406 20,000 2,880 Climbing Salt Lake Center
07:01PM 44.0058 -111.5836 281° West 372 428 23,000 2,520 Climbing Salt Lake Center
07:02PM 44.0159 -111.7665 281° West  Level Estimated
07:02PM 44.0250 -111.7264 281° West 386 444 25,200  Level Salt Lake Center
07:03PM 44.0450 -111.8733 281° West 398 458 27,600 2,340 Climbing Salt Lake Center
07:04PM 44.0692 -112.0517 281° West 413 475 30,000 2,040 Climbing Salt Lake Center
07:05PM 44.0878 -112.2039 280° West 416 479 31,800 1,560 Climbing Salt Lake Center
07:06PM 44.1169 -112.3631 284° West 437 503 33,300 1,560 Climbing Salt Lake Center
07:07PM 44.1533 -112.5519 285° West 449 517 35,100 1,620 Climbing Salt Lake Center
07:08PM 44.1822 -112.7133 284° West 449 517 36,700 1,320 Climbing Salt Lake Center
07:09PM 44.2167 -112.9019 284° West 450 518 37,900 600 Climbing Salt Lake Center
07:10PM 44.2483 -113.0628 285° West 450 518 38,000 540 Climbing Salt Lake Center
07:11PM 44.2767 -113.2228 284° West 446 513 39,000 960 Climbing Salt Lake Center
07:12PM 44.3103 -113.4106 284° West 446 513 40,000 480 Climbing Salt Lake Center
07:14PM 44.3378 -113.5736 283° West 449 517 40,000  Level Salt Lake Center
07:15PM 44.3719 -113.7633 284° West 451 519 40,000  Level Salt Lake Center
07:16PM 44.3989 -113.9186 284° West 435 501 40,000  Level Salt Lake Center
07:17PM 44.4244 -114.0728 283° West 425 489 40,000  Level Salt Lake Center
07:18PM 44.4525 -114.2300 284° West 419 482 40,000  Level Salt Lake Center
07:19PM 44.4786 -114.3919 283° West 425 489 40,000  Level Salt Lake Center
07:20PM 44.5117 -114.5872 283° West 431 496 40,000  Level Salt Lake Center
07:21PM 44.5631 -114.7389 295° West 431 496 40,000  Level Salt Lake Center
07:22PM 44.6203 -114.8861 299° West 431 496 40,000  Level Salt Lake Center
07:23PM 44.6778 -115.0333 299° West 432 497 40,000  Level Salt Lake Center
07:24PM 44.7347 -115.1797 299° West 431 496 40,000  Level Salt Lake Center
07:25PM 44.7908 -115.3269 298° West 430 495 40,000  Level Salt Lake Center
07:26PM 44.8478 -115.4753 298° West 432 497 40,000  Level Salt Lake Center
07:27PM 44.9031 -115.6242 298° West 432 497 40,000  Level Salt Lake Center
07:28PM 44.9700 -115.8025 298° West 432 497 40,000  Level Salt Lake Center
07:29PM 45.0256 -115.9503 298° West 431 496 40,000  Level Salt Lake Center
07:30PM 45.0808 -116.0997 298° West 432 497 40,000  Level Salt Lake Center
07:31PM 45.1367 -116.2486 298° West 431 496 40,000  Level Salt Lake Center
07:32PM 45.1689 -116.3394 297° West 430 495 40,000  Level Seattle Center
07:33PM 45.2253 -116.4892 298° West 432 497 40,000  Level Seattle Center
07:34PM 45.2900 -116.6697 297° West 429 494 40,000  Level Seattle Center
07:35PM 45.3453 -116.8206 298° West 431 496 40,000  Level Seattle Center
07:36PM 45.3986 -116.9719 297° West 430 495 40,000  Level Seattle Center
07:37PM 45.4531 -117.1242 297° West 432 497 40,000  Level Seattle Center
07:38PM 45.5081 -117.2761 297° West 433 498 40,000  Level Seattle Center
07:39PM 45.5636 -117.4358 296° West 433 498 40,000  Level Seattle Center
07:40PM 45.6186 -117.5894 297° West 435 501 40,000  Level Seattle Center
07:41PM 45.6717 -117.7436 296° West 434 499 40,000  Level Seattle Center
07:42PM 45.7189 -117.8761 297° West 436 502 40,000  Level Seattle Center
07:43PM 45.7833 -118.0636 296° West 437 503 40,000  Level Seattle Center
07:44PM 45.8367 -118.2194 296° West 437 503 40,000  Level Seattle Center
07:45PM 45.8911 -118.3764 297° West 440 506 40,000  Level Seattle Center
07:46PM 45.9389 -118.5211 295° West 438 504 40,000  Level Seattle Center
07:47PM 45.9925 -118.6786 296° West 439 505 40,000  Level Seattle Center
07:48PM 46.0456 -118.8367 296° West 442 509 40,000  Level Seattle Center
07:49PM 46.0983 -118.9956 296° West 441 507 40,000  Level Seattle Center
07:50PM 46.1508 -119.1542 296° West 442 509 40,000  Level Seattle Center
07:51PM 46.2042 -119.3147 296° West 446 513 40,000  Level Seattle Center
07:52PM 46.2672 -119.5067 295° West 445 512 40,000  Level Seattle Center
07:53PM 46.3192 -119.6667 295° West 441 507 40,000  Level Seattle Center
07:54PM 46.3717 -119.8278 295° West 445 512 40,000  Level Seattle Center
07:55PM 46.4236 -119.9886 295° West 444 511 40,000  Level Seattle Center
07:56PM 46.4747 -120.1508 295° West 445 512 40,000 -720 Level Seattle Center
07:57PM 46.5269 -120.3133 295° West 447 514 38,600 -1,920 Descending Seattle Center
07:58PM 46.5811 -120.4747 296° West 449 517 36,200 -2,340 Descending Seattle Center
07:59PM 46.6514 -120.6192 305° West 442 509 33,900 -2,340 Descending Seattle Center
08:00PM 46.7208 -120.7653 305° West 440 506 31,500 -2,400 Descending Seattle Center
08:01PM 46.7931 -120.9178 305° West 457 526 29,100 -2,460 Descending Seattle Center
08:02PM 46.8667 -121.0753 304° West 469 540 26,600 -2,400 Descending Seattle Center
08:03PM 46.9375 -121.2247 305° West 454 522 24,300 -2,280 Descending Seattle Center
08:04PM 47.0022 -121.3631 304° West 417 480 22,100 -2,460 Descending Seattle Center
08:04PM 47.0453 -121.4583 304° West 378 435 20,600 -2,220 Descending Seattle Center
08:05PM 47.0664 -121.5033 305° West 387 445 19,900 -1,920 Descending Seattle Center
08:06PM 47.1253 -121.6297 304° West 358 412 17,800 -1,920 Descending Seattle Center
08:07PM 47.1689 -121.7253 304° West 327 376 16,400 -1,680 Descending Seattle Center
08:07PM 47.1781 -121.7419 309° West 334 384 16,100 -1,620 Descending Seattle Center
08:08PM 47.2222 -121.8361 305° West 328 377 14,800 -1,620 Descending Seattle Center
08:08PM 47.2333 -121.8622 302° West 333 383 14,500 -1,020 Descending Seattle Center
08:09PM 47.2700 -121.9436 304° West 316 364 13,800 -900 Descending Seattle Center
08:09PM 47.2806 -121.9669 304° West 311 358 13,600 -900 Descending Seattle Center
08:10PM 47.3136 -122.0436 302° West 288 331 12,900 -900 Descending Seattle Center
08:10PM 47.3244 -122.0636 309° West 284 327 12,700 -900 Descending Seattle Center
08:11PM 47.3583 -122.1400 303° West 283 326 12,000 -900 Descending Seattle Center
08:11PM 47.3672 -122.1633 299° West 286 329 11,800 -1,140 Descending Seattle Center
08:12PM 47.3894 -122.2439 292° West 275 316 10,900 -1,140 Descending Seattle Center
08:12PM 47.3958 -122.2681 291° West 273 314 10,700 -900 Descending Seattle Center
08:13PM 47.4156 -122.3472 290° West 259 298 10,000 -720 Descending Seattle Center
08:13PM 47.4225 -122.3681 296° West 258 297 10,000 -720 Level Seattle Center
08:14PM 47.4411 -122.4481 289° West 256 295 9,300 -840 Descending Seattle Center
08:14PM 47.4469 -122.4683 293° West 258 297 9,200 -1,980 Descending Seattle Center
08:15PM 47.4889 -122.5233 318° Northwest 269 310 7,300 -2,460 Descending Seattle Center
08:15PM 47.5044 -122.5339 335° Northwest 265 305 6,700 -3,000 Descending Seattle Center
08:16PM 47.5644 -122.5672 339° North 274 315 4,300 -2,460 Descending Seattle Center
08:16PM 47.5742 -122.5725 340° North 269 310 4,200 -300 Descending Seattle Center
08:17PM 47.6322 -122.5992 343° North 256 295 4,000 -240 Descending Seattle Center
08:17PM 47.6453 -122.6019 352° North 243 280 4,000 -600 Level Seattle Center
08:18PM 47.6872 -122.5789 20° North 237 273 3,400 -900 Descending Seattle Center
08:18PM 47.6939 -122.5572 65° Northeast 242 278 3,100 -900 Descending Seattle Center
08:19PM 47.6961 -122.4819 87° East 232 267 2,500 -840 Descending Seattle Center
08:19PM 47.6908 -122.4656 116° Southeast 224 258 2,300 -300 Descending Seattle Center
08:20PM 47.6650 -122.4200 130° Southeast 194 223 2,200 -120 Descending Seattle Center
08:20PM 47.6550 -122.4108 148° Southeast 196 226 2,200 -240 Level Seattle Center
08:21PM 47.6200 -122.3822 151° Southeast 183 211 2,000 -420 Descending Seattle Center
08:21PM 47.6111 -122.3722 143° Southeast 184 212 1,800 -840 Descending Seattle Center
08:22PM 47.5883 -122.3539 152° Southeast 121 139 1,200 -720 Descending Seattle Center
08:22PM 47.5819 -122.3469 144° Southeast 123 142 1,100 -660 Descending Seattle Center
08:23PM 47.5533 -122.3231 151° Southeast 126 145 400 -720 Descending Seattle Center
08:26PM 47.5300 -122.3020 120° Southeast  Level Estimated
08:33PM 47.5300 -122.3020 120° Southeast  Level Estimated
08:34PM 47.5300 -122.3020 120° Southeast  Level Estimated
08:35PM 47.5300 -122.3020 120° Southeast  Level Estimated
08:36PM 47.5300 -122.3020 120° Southeast  Level Estimated
08:37PM 47.5300 -122.3020 120° Southeast  Level Estimated
08:38PM 47.5300 -122.3020 120° Southeast  Level Estimated